sensor_id;sensor_type;location;lat;lon;timestamp;temperature;humidity
78467;SHT31;67759;51.972;5.650;2023-02-28T00:01:25;3.6;60.1
78467;SHT31;67759;51.972;5.650;2023-02-28T00:03:56;3.6;60.6
78467;SHT31;67759;51.972;5.650;2023-02-28T00:06:26;3.6;59.6
78467;SHT31;67759;51.972;5.650;2023-02-28T00:08:56;3.6;59.0
78467;SHT31;67759;51.972;5.650;2023-02-28T00:11:26;3.7;58.5
78467;SHT31;67759;51.972;5.650;2023-02-28T00:13:55;3.7;59.8
78467;SHT31;67759;51.972;5.650;2023-02-28T00:16:25;3.8;59.8
78467;SHT31;67759;51.972;5.650;2023-02-28T00:18:58;3.8;60.5
78467;SHT31;67759;51.972;5.650;2023-02-28T00:21:29;4.0;60.5
78467;SHT31;67759;51.972;5.650;2023-02-28T00:23:58;4.1;59.7
78467;SHT31;67759;51.972;5.650;2023-02-28T00:26:29;4.3;58.9
78467;SHT31;67759;51.972;5.650;2023-02-28T00:28:59;4.4;58.7
78467;SHT31;67759;51.972;5.650;2023-02-28T00:31:29;4.4;57.7
78467;SHT31;67759;51.972;5.650;2023-02-28T00:33:58;4.5;58.3
78467;SHT31;67759;51.972;5.650;2023-02-28T00:36:31;4.5;58.3
78467;SHT31;67759;51.972;5.650;2023-02-28T00:39:01;4.6;58.5
78467;SHT31;67759;51.972;5.650;2023-02-28T00:41:31;4.6;58.0
78467;SHT31;67759;51.972;5.650;2023-02-28T00:44:01;4.7;57.9
78467;SHT31;67759;51.972;5.650;2023-02-28T00:46:32;4.7;57.7
78467;SHT31;67759;51.972;5.650;2023-02-28T00:49:02;4.7;57.5
78467;SHT31;67759;51.972;5.650;2023-02-28T00:51:35;4.8;57.6
78467;SHT31;67759;51.972;5.650;2023-02-28T00:54:06;4.8;57.2
78467;SHT31;67759;51.972;5.650;2023-02-28T00:56:37;4.9;57.3
78467;SHT31;67759;51.972;5.650;2023-02-28T00:59:07;5.0;57.3
78467;SHT31;67759;51.972;5.650;2023-02-28T01:01:39;5.0;57.3
78467;SHT31;67759;51.972;5.650;2023-02-28T01:04:09;5.1;56.6
78467;SHT31;67759;51.972;5.650;2023-02-28T01:06:40;5.1;56.8
78467;SHT31;67759;51.972;5.650;2023-02-28T01:09:10;5.2;56.6
78467;SHT31;67759;51.972;5.650;2023-02-28T01:11:42;5.2;55.7
78467;SHT31;67759;51.972;5.650;2023-02-28T01:14:16;5.3;56.2
78467;SHT31;67759;51.972;5.650;2023-02-28T01:16:46;5.3;55.4
78467;SHT31;67759;51.972;5.650;2023-02-28T01:19:16;5.3;55.5
78467;SHT31;67759;51.972;5.650;2023-02-28T01:21:47;5.3;55.8
78467;SHT31;67759;51.972;5.650;2023-02-28T01:24:18;5.3;56.0
78467;SHT31;67759;51.972;5.650;2023-02-28T01:26:48;5.3;56.4
78467;SHT31;67759;51.972;5.650;2023-02-28T01:29:20;5.3;56.4
78467;SHT31;67759;51.972;5.650;2023-02-28T01:31:49;5.3;56.3
78467;SHT31;67759;51.972;5.650;2023-02-28T01:34:19;5.3;56.5
78467;SHT31;67759;51.972;5.650;2023-02-28T01:36:51;5.3;56.1
78467;SHT31;67759;51.972;5.650;2023-02-28T01:39:20;5.3;56.7
78467;SHT31;67759;51.972;5.650;2023-02-28T01:41:51;5.2;56.7
78467;SHT31;67759;51.972;5.650;2023-02-28T01:47:28;5.2;56.7
78467;SHT31;67759;51.972;5.650;2023-02-28T01:50:02;5.2;56.8
78467;SHT31;67759;51.972;5.650;2023-02-28T01:52:34;5.2;56.9
78467;SHT31;67759;51.972;5.650;2023-02-28T01:55:07;5.2;56.9
78467;SHT31;67759;51.972;5.650;2023-02-28T01:57:41;5.2;56.8
78467;SHT31;67759;51.972;5.650;2023-02-28T02:00:15;5.2;57.0
78467;SHT31;67759;51.972;5.650;2023-02-28T02:02:51;5.2;57.0
78467;SHT31;67759;51.972;5.650;2023-02-28T02:05:25;5.2;57.2
78467;SHT31;67759;51.972;5.650;2023-02-28T02:08:03;5.2;57.3
78467;SHT31;67759;51.972;5.650;2023-02-28T02:10:36;5.3;56.9
78467;SHT31;67759;51.972;5.650;2023-02-28T02:13:33;5.4;56.4
78467;SHT31;67759;51.972;5.650;2023-02-28T02:16:17;5.5;55.7
78467;SHT31;67759;51.972;5.650;2023-02-28T02:18:54;5.5;56.0
78467;SHT31;67759;51.972;5.650;2023-02-28T02:21:46;5.6;55.4
78467;SHT31;67759;51.972;5.650;2023-02-28T02:24:48;5.7;55.2
78467;SHT31;67759;51.972;5.650;2023-02-28T02:27:41;5.8;54.8
78467;SHT31;67759;51.972;5.650;2023-02-28T02:32:01;5.9;54.8
78467;SHT31;67759;51.972;5.650;2023-02-28T02:34:42;5.9;54.7
78467;SHT31;67759;51.972;5.650;2023-02-28T02:37:27;5.9;54.7
78467;SHT31;67759;51.972;5.650;2023-02-28T02:40:05;5.9;54.5
78467;SHT31;67759;51.972;5.650;2023-02-28T02:42:43;5.9;54.1
78467;SHT31;67759;51.972;5.650;2023-02-28T02:45:19;5.9;54.2
78467;SHT31;67759;51.972;5.650;2023-02-28T02:47:54;6.0;54.3
78467;SHT31;67759;51.972;5.650;2023-02-28T02:50:31;6.0;54.0
78467;SHT31;67759;51.972;5.650;2023-02-28T02:53:05;6.1;53.7
78467;SHT31;67759;51.972;5.650;2023-02-28T02:55:40;6.1;53.4
78467;SHT31;67759;51.972;5.650;2023-02-28T02:58:16;6.1;53.4
78467;SHT31;67759;51.972;5.650;2023-02-28T03:00:52;6.1;53.7
78467;SHT31;67759;51.972;5.650;2023-02-28T03:03:23;6.1;53.7
78467;SHT31;67759;51.972;5.650;2023-02-28T03:06:00;6.0;53.7
78467;SHT31;67759;51.972;5.650;2023-02-28T03:08:34;6.0;54.0
78467;SHT31;67759;51.972;5.650;2023-02-28T03:11:11;5.9;54.1
78467;SHT31;67759;51.972;5.650;2023-02-28T03:13:55;5.9;54.3
78467;SHT31;67759;51.972;5.650;2023-02-28T03:16:34;5.9;54.9
78467;SHT31;67759;51.972;5.650;2023-02-28T03:19:28;5.8;54.6
78467;SHT31;67759;51.972;5.650;2023-02-28T03:22:14;5.8;54.4
78467;SHT31;67759;51.972;5.650;2023-02-28T03:24:50;5.8;54.9
78467;SHT31;67759;51.972;5.650;2023-02-28T03:27:26;5.7;55.0
78467;SHT31;67759;51.972;5.650;2023-02-28T03:30:04;5.7;54.9
78467;SHT31;67759;51.972;5.650;2023-02-28T03:32:40;5.7;54.8
78467;SHT31;67759;51.972;5.650;2023-02-28T03:35:18;5.7;54.6
78467;SHT31;67759;51.972;5.650;2023-02-28T03:37:53;5.6;54.8
78467;SHT31;67759;51.972;5.650;2023-02-28T03:40:28;5.6;55.0
78467;SHT31;67759;51.972;5.650;2023-02-28T03:43:03;5.6;55.3
78467;SHT31;67759;51.972;5.650;2023-02-28T03:45:37;5.6;55.3
78467;SHT31;67759;51.972;5.650;2023-02-28T03:48:13;5.6;55.2
78467;SHT31;67759;51.972;5.650;2023-02-28T03:50:47;5.6;54.9
78467;SHT31;67759;51.972;5.650;2023-02-28T03:53:21;5.5;54.4
78467;SHT31;67759;51.972;5.650;2023-02-28T03:55:56;5.5;54.2
78467;SHT31;67759;51.972;5.650;2023-02-28T03:58:35;5.5;54.3
78467;SHT31;67759;51.972;5.650;2023-02-28T04:01:10;5.5;53.4
78467;SHT31;67759;51.972;5.650;2023-02-28T04:03:41;5.5;53.2
78467;SHT31;67759;51.972;5.650;2023-02-28T04:06:17;5.4;53.1
78467;SHT31;67759;51.972;5.650;2023-02-28T04:08:48;5.4;51.8
78467;SHT31;67759;51.972;5.650;2023-02-28T04:11:23;5.4;51.8
78467;SHT31;67759;51.972;5.650;2023-02-28T04:13:55;5.4;52.0
78467;SHT31;67759;51.972;5.650;2023-02-28T04:16:25;5.4;51.6
78467;SHT31;67759;51.972;5.650;2023-02-28T04:18:55;5.4;51.7
78467;SHT31;67759;51.972;5.650;2023-02-28T04:21:32;5.4;51.8
78467;SHT31;67759;51.972;5.650;2023-02-28T04:24:03;5.4;52.2
78467;SHT31;67759;51.972;5.650;2023-02-28T04:26:36;5.4;52.1
78467;SHT31;67759;51.972;5.650;2023-02-28T04:29:07;5.5;51.9
78467;SHT31;67759;51.972;5.650;2023-02-28T04:31:37;5.5;52.1
78467;SHT31;67759;51.972;5.650;2023-02-28T04:34:07;5.5;52.8
78467;SHT31;67759;51.972;5.650;2023-02-28T04:36:37;5.5;52.2
78467;SHT31;67759;51.972;5.650;2023-02-28T04:39:07;5.5;52.7
78467;SHT31;67759;51.972;5.650;2023-02-28T04:41:38;5.5;53.0
78467;SHT31;67759;51.972;5.650;2023-02-28T04:44:08;5.5;53.2
78467;SHT31;67759;51.972;5.650;2023-02-28T04:46:40;5.5;53.0
78467;SHT31;67759;51.972;5.650;2023-02-28T04:49:11;5.6;52.7
78467;SHT31;67759;51.972;5.650;2023-02-28T04:51:42;5.6;52.3
78467;SHT31;67759;51.972;5.650;2023-02-28T04:54:12;5.6;52.2
78467;SHT31;67759;51.972;5.650;2023-02-28T04:56:43;5.6;52.5
78467;SHT31;67759;51.972;5.650;2023-02-28T04:59:13;5.6;53.0
78467;SHT31;67759;51.972;5.650;2023-02-28T05:01:46;5.7;53.3
78467;SHT31;67759;51.972;5.650;2023-02-28T05:04:17;5.7;53.4
78467;SHT31;67759;51.972;5.650;2023-02-28T05:06:47;5.8;52.7
78467;SHT31;67759;51.972;5.650;2023-02-28T05:09:17;5.8;53.0
78467;SHT31;67759;51.972;5.650;2023-02-28T05:11:47;5.9;52.7
78467;SHT31;67759;51.972;5.650;2023-02-28T05:14:16;5.9;53.1
78467;SHT31;67759;51.972;5.650;2023-02-28T05:16:46;6.0;53.4
78467;SHT31;67759;51.972;5.650;2023-02-28T05:19:17;6.1;52.3
78467;SHT31;67759;51.972;5.650;2023-02-28T05:21:54;6.1;52.3
78467;SHT31;67759;51.972;5.650;2023-02-28T05:24:24;6.2;52.2
78467;SHT31;67759;51.972;5.650;2023-02-28T05:26:55;6.2;51.9
78467;SHT31;67759;51.972;5.650;2023-02-28T05:29:26;6.3;52.0
78467;SHT31;67759;51.972;5.650;2023-02-28T05:31:55;6.3;51.6
78467;SHT31;67759;51.972;5.650;2023-02-28T05:34:25;6.3;51.5
78467;SHT31;67759;51.972;5.650;2023-02-28T05:36:54;6.3;51.4
78467;SHT31;67759;51.972;5.650;2023-02-28T05:39:24;6.3;51.6
78467;SHT31;67759;51.972;5.650;2023-02-28T05:41:54;6.2;51.9
78467;SHT31;67759;51.972;5.650;2023-02-28T05:44:24;6.2;51.9
78467;SHT31;67759;51.972;5.650;2023-02-28T05:46:53;6.1;51.5
78467;SHT31;67759;51.972;5.650;2023-02-28T05:49:23;6.0;51.9
78467;SHT31;67759;51.972;5.650;2023-02-28T05:51:53;5.9;52.5
78467;SHT31;67759;51.972;5.650;2023-02-28T05:54:23;5.8;52.8
78467;SHT31;67759;51.972;5.650;2023-02-28T05:56:52;5.8;52.9
78467;SHT31;67759;51.972;5.650;2023-02-28T05:59:22;5.7;53.2
78467;SHT31;67759;51.972;5.650;2023-02-28T06:01:52;5.7;53.0
78467;SHT31;67759;51.972;5.650;2023-02-28T06:04:23;5.6;53.3
78467;SHT31;67759;51.972;5.650;2023-02-28T06:06:52;5.6;53.3
78467;SHT31;67759;51.972;5.650;2023-02-28T06:09:24;5.6;54.5
78467;SHT31;67759;51.972;5.650;2023-02-28T06:11:54;5.5;54.7
78467;SHT31;67759;51.972;5.650;2023-02-28T06:14:24;5.5;55.0
78467;SHT31;67759;51.972;5.650;2023-02-28T06:16:54;5.4;55.5
78467;SHT31;67759;51.972;5.650;2023-02-28T06:19:23;5.4;55.5
78467;SHT31;67759;51.972;5.650;2023-02-28T06:21:54;5.4;55.9
78467;SHT31;67759;51.972;5.650;2023-02-28T06:24:25;5.4;55.8
78467;SHT31;67759;51.972;5.650;2023-02-28T06:26:57;5.5;55.8
78467;SHT31;67759;51.972;5.650;2023-02-28T06:29:33;5.5;55.3
78467;SHT31;67759;51.972;5.650;2023-02-28T06:32:03;5.5;55.3
78467;SHT31;67759;51.972;5.650;2023-02-28T06:34:32;5.5;55.8
78467;SHT31;67759;51.972;5.650;2023-02-28T06:37:03;5.5;55.8
78467;SHT31;67759;51.972;5.650;2023-02-28T06:39:32;5.6;55.5
78467;SHT31;67759;51.972;5.650;2023-02-28T06:42:03;5.6;54.9
78467;SHT31;67759;51.972;5.650;2023-02-28T06:44:33;5.6;54.2
78467;SHT31;67759;51.972;5.650;2023-02-28T06:47:05;5.5;54.7
78467;SHT31;67759;51.972;5.650;2023-02-28T06:49:37;5.5;54.3
78467;SHT31;67759;51.972;5.650;2023-02-28T06:52:09;5.5;54.6
78467;SHT31;67759;51.972;5.650;2023-02-28T06:54:39;5.4;54.6
78467;SHT31;67759;51.972;5.650;2023-02-28T06:57:10;5.4;54.3
78467;SHT31;67759;51.972;5.650;2023-02-28T06:59:40;5.4;54.6
78467;SHT31;67759;51.972;5.650;2023-02-28T07:02:10;5.4;54.7
78467;SHT31;67759;51.972;5.650;2023-02-28T07:04:41;5.4;54.4
78467;SHT31;67759;51.972;5.650;2023-02-28T07:07:12;5.4;54.5
78467;SHT31;67759;51.972;5.650;2023-02-28T07:09:41;5.3;54.8
78467;SHT31;67759;51.972;5.650;2023-02-28T07:12:12;5.4;54.5
78467;SHT31;67759;51.972;5.650;2023-02-28T07:14:44;5.4;54.5
78467;SHT31;67759;51.972;5.650;2023-02-28T07:17:14;5.4;54.0
78467;SHT31;67759;51.972;5.650;2023-02-28T07:19:43;5.4;54.3
78467;SHT31;67759;51.972;5.650;2023-02-28T07:22:13;5.4;53.3
78467;SHT31;67759;51.972;5.650;2023-02-28T07:24:42;5.4;52.7
78467;SHT31;67759;51.972;5.650;2023-02-28T07:27:12;5.4;52.7
78467;SHT31;67759;51.972;5.650;2023-02-28T07:29:46;5.4;52.0
78467;SHT31;67759;51.972;5.650;2023-02-28T07:32:16;5.4;52.3
78467;SHT31;67759;51.972;5.650;2023-02-28T07:34:46;5.4;52.5
78467;SHT31;67759;51.972;5.650;2023-02-28T07:37:18;5.4;53.2
78467;SHT31;67759;51.972;5.650;2023-02-28T07:39:48;5.5;52.5
78467;SHT31;67759;51.972;5.650;2023-02-28T07:42:18;5.5;51.8
78467;SHT31;67759;51.972;5.650;2023-02-28T07:44:49;5.5;51.7
78467;SHT31;67759;51.972;5.650;2023-02-28T07:47:20;5.5;52.4
78467;SHT31;67759;51.972;5.650;2023-02-28T07:49:50;5.5;52.1
78467;SHT31;67759;51.972;5.650;2023-02-28T07:52:20;5.5;52.1
78467;SHT31;67759;51.972;5.650;2023-02-28T07:54:51;5.6;50.9
78467;SHT31;67759;51.972;5.650;2023-02-28T07:57:22;5.6;50.8
78467;SHT31;67759;51.972;5.650;2023-02-28T07:59:52;5.6;50.9
78467;SHT31;67759;51.972;5.650;2023-02-28T08:02:24;5.7;51.0
78467;SHT31;67759;51.972;5.650;2023-02-28T08:04:55;5.7;50.0
78467;SHT31;67759;51.972;5.650;2023-02-28T08:07:25;5.8;49.4
78467;SHT31;67759;51.972;5.650;2023-02-28T08:09:55;5.9;47.0
78467;SHT31;67759;51.972;5.650;2023-02-28T08:12:24;6.0;45.2
78467;SHT31;67759;51.972;5.650;2023-02-28T08:14:54;6.1;42.8
78467;SHT31;67759;51.972;5.650;2023-02-28T08:17:24;6.2;41.1
78467;SHT31;67759;51.972;5.650;2023-02-28T08:19:53;6.3;39.6
78467;SHT31;67759;51.972;5.650;2023-02-28T08:22:23;6.5;39.7
78467;SHT31;67759;51.972;5.650;2023-02-28T08:24:54;6.7;38.1
78467;SHT31;67759;51.972;5.650;2023-02-28T08:27:25;6.9;37.8
78467;SHT31;67759;51.972;5.650;2023-02-28T08:29:54;7.1;36.6
78467;SHT31;67759;51.972;5.650;2023-02-28T08:32:25;7.1;36.6
78467;SHT31;67759;51.972;5.650;2023-02-28T08:34:54;7.1;37.7
78467;SHT31;67759;51.972;5.650;2023-02-28T08:37:25;7.1;37.2
78467;SHT31;67759;51.972;5.650;2023-02-28T08:39:54;7.1;36.7
78467;SHT31;67759;51.972;5.650;2023-02-28T08:42:24;7.1;36.2
78467;SHT31;67759;51.972;5.650;2023-02-28T08:44:54;7.1;36.3
78467;SHT31;67759;51.972;5.650;2023-02-28T08:47:23;7.0;35.2
78467;SHT31;67759;51.972;5.650;2023-02-28T08:49:53;6.9;34.7
78467;SHT31;67759;51.972;5.650;2023-02-28T08:52:22;6.9;35.4
78467;SHT31;67759;51.972;5.650;2023-02-28T08:54:52;6.9;35.5
78467;SHT31;67759;51.972;5.650;2023-02-28T08:57:24;6.9;36.3
78467;SHT31;67759;51.972;5.650;2023-02-28T08:59:54;7.0;36.5
78467;SHT31;67759;51.972;5.650;2023-02-28T09:02:26;7.1;36.2
78467;SHT31;67759;51.972;5.650;2023-02-28T09:04:55;7.2;36.4
78467;SHT31;67759;51.972;5.650;2023-02-28T09:07:25;7.2;34.2
78467;SHT31;67759;51.972;5.650;2023-02-28T09:09:56;7.2;34.2
78467;SHT31;67759;51.972;5.650;2023-02-28T09:12:27;7.2;34.2
78467;SHT31;67759;51.972;5.650;2023-02-28T09:14:57;7.1;34.0
78467;SHT31;67759;51.972;5.650;2023-02-28T09:17:26;7.0;33.8
78467;SHT31;67759;51.972;5.650;2023-02-28T09:19:56;7.0;33.5
78467;SHT31;67759;51.972;5.650;2023-02-28T09:22:26;6.9;33.5
78467;SHT31;67759;51.972;5.650;2023-02-28T09:24:56;6.9;33.2
78467;SHT31;67759;51.972;5.650;2023-02-28T09:27:26;6.8;33.5
78467;SHT31;67759;51.972;5.650;2023-02-28T09:29:58;6.8;33.1
78467;SHT31;67759;51.972;5.650;2023-02-28T09:32:27;6.8;34.1
78467;SHT31;67759;51.972;5.650;2023-02-28T09:34:59;6.8;33.5
78467;SHT31;67759;51.972;5.650;2023-02-28T09:37:28;6.8;32.4
78467;SHT31;67759;51.972;5.650;2023-02-28T09:40:00;6.8;33.8
78467;SHT31;67759;51.972;5.650;2023-02-28T09:42:33;6.9;32.8
78467;SHT31;67759;51.972;5.650;2023-02-28T09:45:08;6.9;33.3
78467;SHT31;67759;51.972;5.650;2023-02-28T09:47:45;6.9;33.0
78467;SHT31;67759;51.972;5.650;2023-02-28T09:50:26;6.9;32.7
78467;SHT31;67759;51.972;5.650;2023-02-28T09:53:01;7.0;32.6
78467;SHT31;67759;51.972;5.650;2023-02-28T09:55:37;7.0;33.0
78467;SHT31;67759;51.972;5.650;2023-02-28T09:58:18;7.0;32.9
78467;SHT31;67759;51.972;5.650;2023-02-28T10:01:00;7.0;32.9
78467;SHT31;67759;51.972;5.650;2023-02-28T10:03:36;7.0;32.5
78467;SHT31;67759;51.972;5.650;2023-02-28T10:06:13;7.0;32.3
78467;SHT31;67759;51.972;5.650;2023-02-28T10:08:53;7.0;32.2
78467;SHT31;67759;51.972;5.650;2023-02-28T10:11:28;7.1;33.1
78467;SHT31;67759;51.972;5.650;2023-02-28T10:14:02;7.1;32.1
78467;SHT31;67759;51.972;5.650;2023-02-28T10:16:38;7.2;32.8
78467;SHT31;67759;51.972;5.650;2023-02-28T10:19:20;7.3;31.8
78467;SHT31;67759;51.972;5.650;2023-02-28T10:21:55;7.4;32.3
78467;SHT31;67759;51.972;5.650;2023-02-28T10:24:33;7.5;32.5
78467;SHT31;67759;51.972;5.650;2023-02-28T10:27:14;7.5;32.1
78467;SHT31;67759;51.972;5.650;2023-02-28T10:29:46;7.6;32.5
78467;SHT31;67759;51.972;5.650;2023-02-28T10:32:19;7.7;31.9
78467;SHT31;67759;51.972;5.650;2023-02-28T10:34:53;7.7;32.0
78467;SHT31;67759;51.972;5.650;2023-02-28T10:37:26;7.7;32.2
78467;SHT31;67759;51.972;5.650;2023-02-28T10:39:56;7.7;32.6
78467;SHT31;67759;51.972;5.650;2023-02-28T10:42:27;7.7;32.0
78467;SHT31;67759;51.972;5.650;2023-02-28T10:45:13;7.8;32.5
78467;SHT31;67759;51.972;5.650;2023-02-28T10:47:56;7.8;32.8
78467;SHT31;67759;51.972;5.650;2023-02-28T10:50:37;7.9;32.6
78467;SHT31;67759;51.972;5.650;2023-02-28T10:53:28;7.9;32.0
78467;SHT31;67759;51.972;5.650;2023-02-28T10:56:01;8.0;32.1
78467;SHT31;67759;51.972;5.650;2023-02-28T10:58:45;8.0;32.3
78467;SHT31;67759;51.972;5.650;2023-02-28T11:01:18;8.1;32.0
78467;SHT31;67759;51.972;5.650;2023-02-28T11:03:49;8.1;31.7
78467;SHT31;67759;51.972;5.650;2023-02-28T11:06:22;8.1;31.9
78467;SHT31;67759;51.972;5.650;2023-02-28T11:08:54;8.1;32.7
78467;SHT31;67759;51.972;5.650;2023-02-28T11:11:27;8.2;31.8
78467;SHT31;67759;51.972;5.650;2023-02-28T11:14:05;8.3;32.0
78467;SHT31;67759;51.972;5.650;2023-02-28T11:16:37;8.3;32.0
78467;SHT31;67759;51.972;5.650;2023-02-28T11:19:18;8.4;31.8
78467;SHT31;67759;51.972;5.650;2023-02-28T11:21:54;8.4;32.8
78467;SHT31;67759;51.972;5.650;2023-02-28T11:24:27;8.5;33.6
78467;SHT31;67759;51.972;5.650;2023-02-28T11:26:58;8.6;33.2
78467;SHT31;67759;51.972;5.650;2023-02-28T11:29:29;8.6;32.3
78467;SHT31;67759;51.972;5.650;2023-02-28T11:32:05;8.7;31.6
78467;SHT31;67759;51.972;5.650;2023-02-28T11:34:41;8.7;31.2
78467;SHT31;67759;51.972;5.650;2023-02-28T11:37:16;8.7;32.1
78467;SHT31;67759;51.972;5.650;2023-02-28T11:39:47;8.7;31.6
78467;SHT31;67759;51.972;5.650;2023-02-28T11:42:50;8.8;32.2
78467;SHT31;67759;51.972;5.650;2023-02-28T11:45:39;8.8;31.7
78467;SHT31;67759;51.972;5.650;2023-02-28T11:48:17;8.9;32.7
78467;SHT31;67759;51.972;5.650;2023-02-28T11:51:02;8.9;32.1
78467;SHT31;67759;51.972;5.650;2023-02-28T11:54:08;9.0;33.0
78467;SHT31;67759;51.972;5.650;2023-02-28T11:56:46;9.1;32.4
78467;SHT31;67759;51.972;5.650;2023-02-28T11:59:34;9.2;33.0
78467;SHT31;67759;51.972;5.650;2023-02-28T12:02:25;9.4;32.2
78467;SHT31;67759;51.972;5.650;2023-02-28T12:05:05;9.4;30.2
78467;SHT31;67759;51.972;5.650;2023-02-28T12:07:49;9.4;30.4
78467;SHT31;67759;51.972;5.650;2023-02-28T12:10:24;9.5;31.0
78467;SHT31;67759;51.972;5.650;2023-02-28T12:13:08;9.7;29.6
78467;SHT31;67759;51.972;5.650;2023-02-28T12:16:37;9.8;29.3
78467;SHT31;67759;51.972;5.650;2023-02-28T12:19:18;9.8;33.1
78467;SHT31;67759;51.972;5.650;2023-02-28T12:22:05;9.8;29.0
78467;SHT31;67759;51.972;5.650;2023-02-28T12:27:44;9.9;28.5
78467;SHT31;67759;51.972;5.650;2023-02-28T12:30:19;9.9;28.3
78467;SHT31;67759;51.972;5.650;2023-02-28T12:32:54;10.0;29.5
78467;SHT31;67759;51.972;5.650;2023-02-28T12:35:32;9.9;28.1
78467;SHT31;67759;51.972;5.650;2023-02-28T12:38:08;9.9;28.1
78467;SHT31;67759;51.972;5.650;2023-02-28T12:40:46;9.9;28.5
78467;SHT31;67759;51.972;5.650;2023-02-28T12:43:20;10.0;29.0
78467;SHT31;67759;51.972;5.650;2023-02-28T12:45:55;10.0;30.9
78467;SHT31;67759;51.972;5.650;2023-02-28T12:48:31;10.1;30.0
78467;SHT31;67759;51.972;5.650;2023-02-28T12:51:02;10.1;29.6
78467;SHT31;67759;51.972;5.650;2023-02-28T12:53:45;10.2;31.9
78467;SHT31;67759;51.972;5.650;2023-02-28T12:56:22;10.3;29.8
78467;SHT31;67759;51.972;5.650;2023-02-28T12:58:58;10.5;28.3
78467;SHT31;67759;51.972;5.650;2023-02-28T13:01:44;10.6;28.3
78467;SHT31;67759;51.972;5.650;2023-02-28T13:04:52;10.7;28.1
78467;SHT31;67759;51.972;5.650;2023-02-28T13:10:42;10.8;26.7
78467;SHT31;67759;51.972;5.650;2023-02-28T13:13:18;10.8;26.9
78467;SHT31;67759;51.972;5.650;2023-02-28T13:16:03;10.9;27.5
78467;SHT31;67759;51.972;5.650;2023-02-28T13:18:37;11.0;28.2
78467;SHT31;67759;51.972;5.650;2023-02-28T13:21:08;11.0;28.1
78467;SHT31;67759;51.972;5.650;2023-02-28T13:24:01;11.0;29.8
78467;SHT31;67759;51.972;5.650;2023-02-28T13:27:32;11.1;28.6
78467;SHT31;67759;51.972;5.650;2023-02-28T13:33:22;11.3;26.6
78467;SHT31;67759;51.972;5.650;2023-02-28T13:36:07;11.5;28.6
78467;SHT31;67759;51.972;5.650;2023-02-28T13:38:40;11.6;26.8
78467;SHT31;67759;51.972;5.650;2023-02-28T13:43:31;11.7;26.0
78467;SHT31;67759;51.972;5.650;2023-02-28T13:46:10;11.7;28.9
78467;SHT31;67759;51.972;5.650;2023-02-28T13:48:41;11.8;29.6
78467;SHT31;67759;51.972;5.650;2023-02-28T13:51:31;11.8;26.7
78467;SHT31;67759;51.972;5.650;2023-02-28T13:54:31;11.9;27.7
78467;SHT31;67759;51.972;5.650;2023-02-28T13:57:14;12.0;30.2
78467;SHT31;67759;51.972;5.650;2023-02-28T13:59:59;12.1;28.8
78467;SHT31;67759;51.972;5.650;2023-02-28T14:02:46;12.3;25.8
78467;SHT31;67759;51.972;5.650;2023-02-28T14:05:21;12.3;25.4
78467;SHT31;67759;51.972;5.650;2023-02-28T14:07:57;12.3;26.2
78467;SHT31;67759;51.972;5.650;2023-02-28T14:10:31;12.3;26.9
78467;SHT31;67759;51.972;5.650;2023-02-28T14:13:11;12.4;27.3
78467;SHT31;67759;51.972;5.650;2023-02-28T14:15:57;12.4;26.2
78467;SHT31;67759;51.972;5.650;2023-02-28T14:18:31;12.4;25.1
78467;SHT31;67759;51.972;5.650;2023-02-28T14:21:11;12.4;28.1
78467;SHT31;67759;51.972;5.650;2023-02-28T14:23:58;12.3;26.9
78467;SHT31;67759;51.972;5.650;2023-02-28T14:26:48;12.2;28.4
78467;SHT31;67759;51.972;5.650;2023-02-28T14:29:41;12.2;26.2
78467;SHT31;67759;51.972;5.650;2023-02-28T14:32:18;12.3;26.7
78467;SHT31;67759;51.972;5.650;2023-02-28T14:34:55;12.3;28.8
78467;SHT31;67759;51.972;5.650;2023-02-28T14:37:30;12.4;25.5
78467;SHT31;67759;51.972;5.650;2023-02-28T14:40:04;12.5;27.0
78467;SHT31;67759;51.972;5.650;2023-02-28T14:42:36;12.5;29.0
78467;SHT31;67759;51.972;5.650;2023-02-28T14:45:20;12.5;26.8
78467;SHT31;67759;51.972;5.650;2023-02-28T14:47:51;12.6;30.9
78467;SHT31;67759;51.972;5.650;2023-02-28T14:50:26;12.6;28.9
78467;SHT31;67759;51.972;5.650;2023-02-28T14:53:00;12.6;25.2
78467;SHT31;67759;51.972;5.650;2023-02-28T14:55:33;12.6;26.7
78467;SHT31;67759;51.972;5.650;2023-02-28T14:58:21;12.6;31.7
78467;SHT31;67759;51.972;5.650;2023-02-28T15:00:53;12.6;27.8
78467;SHT31;67759;51.972;5.650;2023-02-28T15:03:32;12.5;30.7
78467;SHT31;67759;51.972;5.650;2023-02-28T15:06:04;12.5;28.1
78467;SHT31;67759;51.972;5.650;2023-02-28T15:08:35;12.4;28.1
78467;SHT31;67759;51.972;5.650;2023-02-28T15:11:08;12.4;26.6
78467;SHT31;67759;51.972;5.650;2023-02-28T15:13:40;12.3;28.5
78467;SHT31;67759;51.972;5.650;2023-02-28T15:16:15;12.2;29.8
78467;SHT31;67759;51.972;5.650;2023-02-28T15:18:49;12.2;30.0
78467;SHT31;67759;51.972;5.650;2023-02-28T15:21:22;12.1;27.6
78467;SHT31;67759;51.972;5.650;2023-02-28T15:23:56;12.0;30.6
78467;SHT31;67759;51.972;5.650;2023-02-28T15:26:30;11.9;32.7
78467;SHT31;67759;51.972;5.650;2023-02-28T15:29:05;11.9;27.1
78467;SHT31;67759;51.972;5.650;2023-02-28T15:31:41;11.9;29.1
78467;SHT31;67759;51.972;5.650;2023-02-28T15:34:18;11.9;28.3
78467;SHT31;67759;51.972;5.650;2023-02-28T15:36:49;11.9;27.6
78467;SHT31;67759;51.972;5.650;2023-02-28T15:39:21;11.9;27.2
78467;SHT31;67759;51.972;5.650;2023-02-28T15:41:55;11.8;28.5
78467;SHT31;67759;51.972;5.650;2023-02-28T15:44:30;11.8;28.9
78467;SHT31;67759;51.972;5.650;2023-02-28T15:47:04;11.8;26.2
78467;SHT31;67759;51.972;5.650;2023-02-28T15:49:40;11.8;26.8
78467;SHT31;67759;51.972;5.650;2023-02-28T15:52:17;11.8;27.6
78467;SHT31;67759;51.972;5.650;2023-02-28T15:54:50;11.8;32.2
78467;SHT31;67759;51.972;5.650;2023-02-28T15:57:24;11.8;27.8
78467;SHT31;67759;51.972;5.650;2023-02-28T15:59:57;11.9;28.5
78467;SHT31;67759;51.972;5.650;2023-02-28T16:02:33;11.9;29.3
78467;SHT31;67759;51.972;5.650;2023-02-28T16:05:20;12.0;30.0
78467;SHT31;67759;51.972;5.650;2023-02-28T16:07:56;12.0;30.1
78467;SHT31;67759;51.972;5.650;2023-02-28T16:10:30;11.9;29.5
78467;SHT31;67759;51.972;5.650;2023-02-28T16:13:04;11.9;29.3
78467;SHT31;67759;51.972;5.650;2023-02-28T16:15:38;11.9;32.6
78467;SHT31;67759;51.972;5.650;2023-02-28T16:18:12;11.9;34.6
78467;SHT31;67759;51.972;5.650;2023-02-28T16:20:42;11.8;32.0
78467;SHT31;67759;51.972;5.650;2023-02-28T16:23:12;11.6;30.2
78467;SHT31;67759;51.972;5.650;2023-02-28T16:25:43;11.4;27.8
78467;SHT31;67759;51.972;5.650;2023-02-28T16:28:19;11.3;28.5
78467;SHT31;67759;51.972;5.650;2023-02-28T16:30:53;11.2;32.3
78467;SHT31;67759;51.972;5.650;2023-02-28T16:33:32;11.1;28.2
78467;SHT31;67759;51.972;5.650;2023-02-28T16:36:02;10.9;28.4
78467;SHT31;67759;51.972;5.650;2023-02-28T16:38:32;10.8;33.0
78467;SHT31;67759;51.972;5.650;2023-02-28T16:41:05;10.6;29.2
78467;SHT31;67759;51.972;5.650;2023-02-28T16:43:35;10.5;29.4
78467;SHT31;67759;51.972;5.650;2023-02-28T16:46:08;10.4;34.2
78467;SHT31;67759;51.972;5.650;2023-02-28T16:48:40;10.3;32.0
78467;SHT31;67759;51.972;5.650;2023-02-28T16:51:12;10.2;33.5
78467;SHT31;67759;51.972;5.650;2023-02-28T16:53:42;10.0;34.2
78467;SHT31;67759;51.972;5.650;2023-02-28T16:56:16;9.9;34.7
78467;SHT31;67759;51.972;5.650;2023-02-28T16:58:47;9.8;34.4
78467;SHT31;67759;51.972;5.650;2023-02-28T17:01:19;9.6;31.8
78467;SHT31;67759;51.972;5.650;2023-02-28T17:03:50;9.4;35.2
78467;SHT31;67759;51.972;5.650;2023-02-28T17:06:23;9.3;35.7
78467;SHT31;67759;51.972;5.650;2023-02-28T17:08:56;9.2;36.7
78467;SHT31;67759;51.972;5.650;2023-02-28T17:11:26;9.1;32.8
78467;SHT31;67759;51.972;5.650;2023-02-28T17:13:58;9.0;37.1
78467;SHT31;67759;51.972;5.650;2023-02-28T17:16:29;8.9;35.5
78467;SHT31;67759;51.972;5.650;2023-02-28T17:19:03;8.7;36.5